• Join FlightAware (Why Join?)
  • Login
  • US Flag 
06:12AM EDT


 

Airport Tracker/Info


-or-


 

Live Flight TrackerFlight Track Log ✈ EJA947 ✈ 23-Apr-2013 ✈ CYYC - KLAS

Flight Track Log - Related Links

Times and Time Zones

All times are in EDT time to prevent confusion due to time zone crossing. See the EJA947 flight status page for this flight to view local times or setup timezone preferences in your user account.

Time Position Orientation Groundspeed Altitude Reporting Facility
EDT Latitude Longitude Course Direction KTS MPH feet Rate Location/Type
04:13PM 51.1167 -114.0333 172° South 200 230 6,100  Level Edmonton Center
04:14PM 51.1833 -114.0500 351° North 230 265 10,500 4,560 Climbing Edmonton Center
04:15PM 51.1667 -114.1833 259° West 280 322 15,300 3,660 Climbing Edmonton Center
04:16PM 51.0833 -114.2167 194° South 350 403 17,900 2,100 Climbing Edmonton Center
04:17PM 50.4167 -113.7000 171° South  Level FlightAware Approximate
04:17PM 50.9833 -114.2000 174° South 400 460 19,600  Level Edmonton Center
04:18PM 50.2869 -113.6712 172° South  Level FlightAware Approximate
04:18PM 50.8667 -114.1500 165° South 430 495 21,300  Level Edmonton Center
04:19PM 50.7333 -114.1167 171° South 450 518 23,000 1,560 Climbing Edmonton Center
04:20PM 50.6000 -114.1000 175° South 480 552 24,500 1,560 Climbing Edmonton Center
04:21PM 50.4667 -114.0667 171° South 490 564 26,200 1,740 Climbing Edmonton Center
04:22PM 50.3333 -114.0667 180° South 500 575 28,000 1,920 Climbing Edmonton Center
04:23PM 50.1833 -114.0333 172° South 510 587 30,100 1,980 Climbing Edmonton Center
04:24PM 50.0500 -114.0333 180° South 510 587 32,000 1,800 Climbing Edmonton Center
04:25PM 49.9000 -114.0000 172° South 520 598 33,800 1,620 Climbing Edmonton Center
04:27PM 49.6000 -113.9667 176° South 530 610 36,900 1,500 Climbing Edmonton Center
04:28PM 49.4500 -113.9667 180° South 530 610 38,400 1,500 Climbing Edmonton Center
04:29PM 49.3167 -113.9667 180° South 530 610 39,900 1,260 Climbing Edmonton Center
04:30PM 49.1667 -113.9333 172° South 530 610 41,000 540 Climbing Edmonton Center
04:31PM 49.0167 -113.9333 180° South 530 610 41,000  Level Edmonton Center
04:32PM 48.8500 -113.9000 173° South 540 621 41,000  Level Edmonton Center
04:32PM 48.8283 -113.8797 148° Southeast 547 629 41,000  Level Salt Lake Center
04:33PM 48.6744 -113.8653 176° South 553 636 41,000  Level Salt Lake Center
04:34PM 48.4908 -113.8472 176° South 551 634 41,000  Level Salt Lake Center
04:35PM 48.3369 -113.8328 176° South 550 633 41,000  Level Salt Lake Center
04:36PM 48.1839 -113.8175 176° South 549 632 41,000  Level Salt Lake Center
04:37PM 48.0303 -113.8028 176° South 547 629 41,000  Level Salt Lake Center
04:38PM 47.8761 -113.7886 176° South 549 632 41,000  Level Salt Lake Center
04:39PM 47.7231 -113.7742 176° South 548 631 41,000  Level Salt Lake Center
04:40PM 47.5694 -113.7600 176° South 549 632 41,000  Level Salt Lake Center
04:41PM 47.4175 -113.7450 176° South 546 628 41,000  Level Salt Lake Center
04:43PM 47.2650 -113.7308 176° South 550 633 41,000  Level Salt Lake Center
04:44PM 47.1119 -113.7175 177° South 551 634 41,000  Level Salt Lake Center
04:45PM 46.9294 -113.7008 176° South 548 631 41,000  Level Salt Lake Center
04:46PM 46.7775 -113.6872 176° South 548 631 41,000  Level Salt Lake Center
04:47PM 46.6236 -113.6719 176° South 553 636 41,000  Level Salt Lake Center
04:48PM 46.4683 -113.6578 176° South 559 643 41,000  Level Salt Lake Center
04:49PM 46.3136 -113.6428 176° South 559 643 41,000  Level Salt Lake Center
04:50PM 46.1575 -113.6286 176° South 562 647 41,000  Level Salt Lake Center
04:51PM 45.9981 -113.6039 174° South 561 646 41,000  Level Salt Lake Center
04:52PM 45.8414 -113.5750 173° South 566 651 41,000  Level Salt Lake Center
04:53PM 45.6558 -113.5392 172° South 563 648 41,000  Level Salt Lake Center
04:54PM 45.5022 -113.5111 173° South 560 644 41,000  Level Salt Lake Center
04:56PM 45.1817 -113.4531 173° South 563 648 41,000  Level Salt Lake Center
04:57PM 45.0331 -113.4267 173° South 562 647 41,000  Level Salt Lake Center
04:58PM 44.8600 -113.3931 172° South 564 649 41,000  Level Salt Lake Center
04:59PM 44.7128 -113.3681 173° South 561 646 41,000  Level Salt Lake Center
05:00PM 44.5647 -113.3414 173° South 561 646 41,000  Level Salt Lake Center
05:01PM 44.3917 -113.3100 173° South 562 647 41,000  Level Salt Lake Center
05:02PM 44.2436 -113.2842 173° South 562 647 41,000  Level Salt Lake Center
05:03PM 44.0694 -113.2544 173° South 565 650 41,000  Level Salt Lake Center
05:04PM 43.9197 -113.2278 173° South 568 654 41,000  Level Salt Lake Center
05:05PM 43.7469 -113.1981 173° South 562 647 41,000  Level Salt Lake Center
05:06PM 43.5975 -113.1725 173° South 566 651 41,000  Level Salt Lake Center
05:07PM 43.4267 -113.1431 173° South 558 642 41,000  Level Salt Lake Center
05:08PM 43.2775 -113.1181 173° South 562 647 41,000  Level Salt Lake Center
05:09PM 43.1272 -113.0900 172° South 567 652 41,000  Level Salt Lake Center
05:10PM 42.9542 -113.0625 173° South 564 649 41,000  Level Salt Lake Center
05:11PM 42.8056 -113.0375 173° South 564 649 41,000  Level Salt Lake Center
05:12PM 42.6428 -113.0094 173° South 563 648 41,000  Level Salt Lake Center
05:13PM 42.4869 -112.9842 173° South 566 651 41,000  Level Salt Lake Center
05:14PM 42.3322 -112.9583 173° South 564 649 41,000  Level Salt Lake Center
05:15PM 42.1464 -112.9281 173° South 561 646 41,000  Level Salt Lake Center
05:16PM 41.9928 -112.9025 173° South 558 642 41,000  Level Salt Lake Center
05:17PM 41.8400 -112.8769 173° South 556 640 41,000  Level Salt Lake Center
05:18PM 41.6858 -112.8508 173° South 559 643 41,000  Level Salt Lake Center
05:19PM 41.5319 -112.8292 174° South 560 644 41,000  Level Salt Lake Center
05:21PM 41.3794 -112.8047 173° South 557 641 41,000  Level Salt Lake Center
05:22PM 41.1969 -112.7744 173° South 555 639 41,000  Level Salt Lake Center
05:23PM 41.0447 -112.7508 173° South 556 640 41,000  Level Salt Lake Center
05:24PM 40.8939 -112.7269 173° South 552 635 41,000  Level Salt Lake Center
05:25PM 40.7428 -112.7025 173° South 552 635 41,000  Level Salt Lake Center
05:26PM 40.5908 -112.6800 174° South 552 635 41,000  Level Salt Lake Center
05:27PM 40.4389 -112.6556 173° South 552 635 41,000  Level Salt Lake Center
05:28PM 40.2558 -112.6281 173° South 553 636 41,000  Level Salt Lake Center
05:29PM 40.1033 -112.6036 173° South 554 638 41,000  Level Salt Lake Center
05:30PM 39.9508 -112.5900 176° South 552 635 41,000  Level Salt Lake Center
05:31PM 39.8081 -112.6272 191° South 527 606 41,000  Level Salt Lake Center
05:32PM 39.6508 -112.6692 192° South 534 615 41,000  Level Salt Lake Center
05:33PM 39.5086 -112.7081 192° South 525 604 41,000  Level Salt Lake Center
05:34PM 39.3661 -112.7456 192° South 523 602 41,000  Level Salt Lake Center
05:35PM 39.2236 -112.7831 192° South 522 601 41,000  Level Salt Lake Center
05:36PM 39.0825 -112.8228 192° South 520 598 41,000 -420 Level Salt Lake Center
05:37PM 38.9119 -112.8692 192° South 523 602 40,200 -1,080 Descending Salt Lake Center
05:38PM 38.7733 -112.9050 191° South 511 588 38,800 -1,380 Descending Salt Lake Center
05:39PM 38.6336 -112.9400 191° South 511 588 37,400 -1,380 Descending Salt Lake Center
05:40PM 38.4906 -112.9772 192° South 521 600 36,000 -900 Descending Salt Lake Center
05:41PM 38.3469 -113.0244 194° South 532 612 35,600 -900 Descending Salt Lake Center
05:42PM 38.2211 -113.1006 205° Southwest 504 580 34,200 -1,560 Descending Salt Lake Center
05:43PM 38.0642 -113.1947 205° Southwest 516 594 32,400 -1,080 Descending Salt Lake Center
05:44PM 37.9267 -113.2808 206° Southwest 540 621 32,000 -240 Descending Salt Lake Center
05:45PM 37.7867 -113.3650 205° Southwest 557 641 32,000  Level Salt Lake Center
05:46PM 37.6500 -113.4472 205° Southwest 553 636 32,000  Level Salt Lake Center
05:47PM 37.5167 -113.5267 205° Southwest 541 623 32,000 -780 Level Salt Lake Center
05:48PM 37.3722 -113.6142 206° Southwest 496 571 30,400 -1,680 Descending Los Angeles Center
05:49PM 37.2617 -113.6786 205° Southwest 447 514 28,600 -1,620 Descending Los Angeles Center
05:50PM 37.1558 -113.7428 206° Southwest 433 498 27,100 -1,680 Descending Salt Lake Center
05:51PM 37.0492 -113.8056 205° Southwest 427 491 25,200 -1,560 Descending Salt Lake Center
05:52PM 36.9425 -113.8686 205° Southwest 427 491 24,000 -600 Descending Salt Lake Center
05:54PM 36.8372 -113.9294 205° Southwest 391 450 24,000 -360 Level Los Angeles Center
05:55PM 36.7261 -113.9956 205° Southwest 393 452 23,300 -1,440 Descending Los Angeles Center
05:56PM 36.6311 -114.0517 205° Southwest 384 442 21,100 -2,100 Descending Los Angeles Center
05:57PM 36.5581 -114.1217 218° Southwest 353 406 19,000 -1,980 Descending Los Angeles Center
05:58PM 36.5125 -114.2194 240° Southwest 307 353 17,100 -1,980 Descending Los Angeles Center
05:59PM 36.4756 -114.3128 244° Southwest 317 365 15,300 -2,040 Descending Los Angeles Center
05:59PM 36.4481 -114.3733 241° Southwest 322 371 14,100 -1,680 Descending Los Angeles Center
06:00PM 36.4242 -114.4114 232° Southwest 320 368 13,300 -1,920 Descending Los Angeles Center
06:00PM 36.4053 -114.4628 245° Southwest 306 352 12,200 -1,260 Descending Los Angeles Center
06:01PM 36.3847 -114.5019 237° Southwest 306 352 12,000 -240 Descending Los Angeles Center
06:01PM 36.3689 -114.5422 244° Southwest 293 337 12,000  Level Los Angeles Center
06:02PM 36.3444 -114.5886 237° Southwest 294 338 12,000 -600 Level Los Angeles Center
06:02PM 36.3278 -114.6308 244° Southwest 293 337 11,400 -1,560 Descending Los Angeles Center
06:03PM 36.2967 -114.6942 239° Southwest 291 335 10,400 -1,380 Descending Los Angeles Center
06:03PM 36.2869 -114.7194 244° Southwest 291 335 10,000 -1,380 Descending Los Angeles Center
06:04PM 36.2553 -114.7825 238° Southwest 294 338 9,000 -840 Descending Los Angeles Center
06:05PM 36.2100 -114.8814 240° Southwest 257 296 8,400 -480 Descending Los Angeles Center
06:06PM 36.1842 -114.9356 239° Southwest 245 282 8,100 -240 Descending Los Angeles Center
06:07PM 36.1483 -114.9925 232° Southwest 218 251 8,000 -60 Descending Los Angeles Center
06:08PM 36.1114 -115.0425 228° Southwest 201 231 8,000  Level Los Angeles Center
06:09PM 36.0650 -115.0764 211° Southwest 200 230 8,000 -900 Level Los Angeles Center
06:10PM 36.0028 -115.1056 201° Southwest 199 229 6,200 -1,020 Descending Los Angeles Center
06:11PM 35.9544 -115.1444 213° Southwest 188 216 5,900 -360 Descending Los Angeles Center
06:12PM 35.9697 -115.1958 290° West 193 222 5,500 -960 Descending Los Angeles Center
06:13PM 36.0208 -115.2022 354° North 184 212 4,000 -1,260 Descending Los Angeles Center
06:14PM 36.0331 -115.1936 30° Northeast 144 166 3,700 -660 Descending Los Angeles Center
06:15PM 36.0864 -115.1617 26° Northeast 179 206 3,100 -600 Descending Los Angeles Center
06:17PM 36.0801 -115.1523 15° North  Level Estimated